sensor_id;sensor_type;location;lat;lon;timestamp;P1;durP1;ratioP1;P2;durP2;ratioP2
71303;SDS011;59091;47.446;19.148;2023-01-30T00:00:21;24.38;;;13.13;;
71303;SDS011;59091;47.446;19.148;2023-01-30T00:02:46;25.58;;;14.40;;
71303;SDS011;59091;47.446;19.148;2023-01-30T00:05:12;24.77;;;14.13;;
71303;SDS011;59091;47.446;19.148;2023-01-30T00:07:37;27.63;;;14.40;;
71303;SDS011;59091;47.446;19.148;2023-01-30T00:10:03;24.92;;;13.95;;
71303;SDS011;59091;47.446;19.148;2023-01-30T00:12:29;26.85;;;15.23;;
71303;SDS011;59091;47.446;19.148;2023-01-30T00:14:54;26.88;;;14.25;;
71303;SDS011;59091;47.446;19.148;2023-01-30T00:17:19;29.02;;;14.20;;
71303;SDS011;59091;47.446;19.148;2023-01-30T00:19:45;27.05;;;15.27;;
71303;SDS011;59091;47.446;19.148;2023-01-30T00:22:10;29.10;;;15.02;;
71303;SDS011;59091;47.446;19.148;2023-01-30T00:24:36;29.85;;;15.27;;
71303;SDS011;59091;47.446;19.148;2023-01-30T00:27:01;25.52;;;14.65;;
71303;SDS011;59091;47.446;19.148;2023-01-30T00:29:26;27.48;;;14.30;;
71303;SDS011;59091;47.446;19.148;2023-01-30T00:31:52;28.40;;;14.25;;
71303;SDS011;59091;47.446;19.148;2023-01-30T00:34:17;29.42;;;14.07;;
71303;SDS011;59091;47.446;19.148;2023-01-30T00:36:43;27.67;;;14.13;;
71303;SDS011;59091;47.446;19.148;2023-01-30T00:39:08;27.48;;;14.98;;
71303;SDS011;59091;47.446;19.148;2023-01-30T00:41:33;27.08;;;14.75;;
71303;SDS011;59091;47.446;19.148;2023-01-30T00:44:17;31.00;;;14.52;;
71303;SDS011;59091;47.446;19.148;2023-01-30T00:49:29;30.15;;;14.27;;
71303;SDS011;59091;47.446;19.148;2023-01-30T00:51:55;28.38;;;14.82;;
71303;SDS011;59091;47.446;19.148;2023-01-30T00:54:20;28.77;;;14.30;;
71303;SDS011;59091;47.446;19.148;2023-01-30T00:56:46;28.42;;;14.30;;
71303;SDS011;59091;47.446;19.148;2023-01-30T00:59:11;27.95;;;14.82;;
71303;SDS011;59091;47.446;19.148;2023-01-30T01:01:37;30.88;;;15.98;;
71303;SDS011;59091;47.446;19.148;2023-01-30T01:04:02;31.65;;;15.23;;
71303;SDS011;59091;47.446;19.148;2023-01-30T01:06:28;29.10;;;15.63;;
71303;SDS011;59091;47.446;19.148;2023-01-30T01:08:54;28.23;;;15.63;;
71303;SDS011;59091;47.446;19.148;2023-01-30T01:11:19;27.55;;;15.23;;
71303;SDS011;59091;47.446;19.148;2023-01-30T01:13:52;30.38;;;15.23;;
71303;SDS011;59091;47.446;19.148;2023-01-30T01:16:18;28.98;;;15.20;;
71303;SDS011;59091;47.446;19.148;2023-01-30T01:18:45;39.72;;;15.25;;
71303;SDS011;59091;47.446;19.148;2023-01-30T01:21:10;32.28;;;16.13;;
71303;SDS011;59091;47.446;19.148;2023-01-30T01:23:37;27.67;;;15.07;;
71303;SDS011;59091;47.446;19.148;2023-01-30T01:26:02;28.90;;;15.25;;
71303;SDS011;59091;47.446;19.148;2023-01-30T01:28:28;28.38;;;14.57;;
71303;SDS011;59091;47.446;19.148;2023-01-30T01:30:54;31.90;;;15.77;;
71303;SDS011;59091;47.446;19.148;2023-01-30T01:33:20;27.08;;;14.55;;
71303;SDS011;59091;47.446;19.148;2023-01-30T01:35:45;35.47;;;16.85;;
71303;SDS011;59091;47.446;19.148;2023-01-30T01:38:12;30.83;;;14.98;;
71303;SDS011;59091;47.446;19.148;2023-01-30T01:40:38;31.00;;;15.60;;
71303;SDS011;59091;47.446;19.148;2023-01-30T01:43:23;30.25;;;15.02;;
71303;SDS011;59091;47.446;19.148;2023-01-30T01:45:52;31.02;;;15.55;;
71303;SDS011;59091;47.446;19.148;2023-01-30T01:49:11;35.28;;;16.35;;
71303;SDS011;59091;47.446;19.148;2023-01-30T01:51:19;32.33;;;17.02;;
71303;SDS011;59091;47.446;19.148;2023-01-30T01:53:53;34.33;;;16.90;;
71303;SDS011;59091;47.446;19.148;2023-01-30T01:56:22;31.92;;;15.63;;
71303;SDS011;59091;47.446;19.148;2023-01-30T01:58:56;36.22;;;15.65;;
71303;SDS011;59091;47.446;19.148;2023-01-30T02:01:23;32.70;;;15.63;;
71303;SDS011;59091;47.446;19.148;2023-01-30T02:03:50;36.85;;;16.85;;
71303;SDS011;59091;47.446;19.148;2023-01-30T02:06:20;36.55;;;16.40;;
71303;SDS011;59091;47.446;19.148;2023-01-30T02:08:48;30.80;;;15.50;;
71303;SDS011;59091;47.446;19.148;2023-01-30T02:14:11;27.52;;;14.50;;
71303;SDS011;59091;47.446;19.148;2023-01-30T02:16:38;31.45;;;15.85;;
71303;SDS011;59091;47.446;19.148;2023-01-30T02:19:10;29.23;;;15.13;;
71303;SDS011;59091;47.446;19.148;2023-01-30T02:33:12;38.80;;;15.90;;
71303;SDS011;59091;47.446;19.148;2023-01-30T02:36:19;30.30;;;14.73;;
71303;SDS011;59091;47.446;19.148;2023-01-30T02:47:46;30.35;;;14.32;;
71303;SDS011;59091;47.446;19.148;2023-01-30T02:50:48;25.63;;;13.32;;
71303;SDS011;59091;47.446;19.148;2023-01-30T02:53:15;30.42;;;14.80;;
71303;SDS011;59091;47.446;19.148;2023-01-30T02:55:41;30.63;;;14.82;;
71303;SDS011;59091;47.446;19.148;2023-01-30T02:58:06;29.83;;;14.68;;
71303;SDS011;59091;47.446;19.148;2023-01-30T03:05:52;32.72;;;15.05;;
71303;SDS011;59091;47.446;19.148;2023-01-30T03:13:55;37.35;;;13.32;;
71303;SDS011;59091;47.446;19.148;2023-01-30T03:16:36;30.50;;;14.40;;
71303;SDS011;59091;47.446;19.148;2023-01-30T03:19:03;33.78;;;15.00;;
71303;SDS011;59091;47.446;19.148;2023-01-30T03:21:32;26.92;;;14.55;;
71303;SDS011;59091;47.446;19.148;2023-01-30T03:23:58;29.17;;;14.48;;
71303;SDS011;59091;47.446;19.148;2023-01-30T03:26:24;34.05;;;15.32;;
71303;SDS011;59091;47.446;19.148;2023-01-30T03:28:54;31.83;;;15.40;;
71303;SDS011;59091;47.446;19.148;2023-01-30T03:31:20;31.75;;;14.20;;
71303;SDS011;59091;47.446;19.148;2023-01-30T03:33:45;32.67;;;15.25;;
71303;SDS011;59091;47.446;19.148;2023-01-30T03:36:11;31.67;;;15.90;;
71303;SDS011;59091;47.446;19.148;2023-01-30T03:38:37;35.55;;;16.20;;
71303;SDS011;59091;47.446;19.148;2023-01-30T03:41:02;31.48;;;15.30;;
71303;SDS011;59091;47.446;19.148;2023-01-30T03:43:29;31.45;;;16.55;;
71303;SDS011;59091;47.446;19.148;2023-01-30T03:45:55;33.88;;;15.73;;
71303;SDS011;59091;47.446;19.148;2023-01-30T03:48:20;32.63;;;15.95;;
71303;SDS011;59091;47.446;19.148;2023-01-30T03:50:46;28.88;;;15.32;;
71303;SDS011;59091;47.446;19.148;2023-01-30T03:53:11;32.03;;;16.15;;
71303;SDS011;59091;47.446;19.148;2023-01-30T03:55:37;30.48;;;15.65;;
71303;SDS011;59091;47.446;19.148;2023-01-30T03:58:03;30.80;;;15.60;;
71303;SDS011;59091;47.446;19.148;2023-01-30T04:00:29;36.33;;;16.60;;
71303;SDS011;59091;47.446;19.148;2023-01-30T04:02:54;30.77;;;15.80;;
71303;SDS011;59091;47.446;19.148;2023-01-30T04:05:21;28.65;;;15.25;;
71303;SDS011;59091;47.446;19.148;2023-01-30T04:07:47;36.85;;;16.02;;
71303;SDS011;59091;47.446;19.148;2023-01-30T04:10:14;31.50;;;15.95;;
71303;SDS011;59091;47.446;19.148;2023-01-30T04:12:42;35.00;;;15.85;;
71303;SDS011;59091;47.446;19.148;2023-01-30T04:15:08;41.85;;;16.40;;
71303;SDS011;59091;47.446;19.148;2023-01-30T04:17:34;32.10;;;16.05;;
71303;SDS011;59091;47.446;19.148;2023-01-30T04:20:00;33.80;;;15.32;;
71303;SDS011;59091;47.446;19.148;2023-01-30T04:22:26;29.52;;;14.65;;
71303;SDS011;59091;47.446;19.148;2023-01-30T04:24:51;29.00;;;14.95;;
71303;SDS011;59091;47.446;19.148;2023-01-30T04:27:16;30.58;;;15.38;;
71303;SDS011;59091;47.446;19.148;2023-01-30T04:29:42;28.45;;;15.73;;
71303;SDS011;59091;47.446;19.148;2023-01-30T04:32:07;36.30;;;15.98;;
71303;SDS011;59091;47.446;19.148;2023-01-30T04:34:33;31.88;;;15.15;;
71303;SDS011;59091;47.446;19.148;2023-01-30T04:36:58;31.58;;;15.32;;
71303;SDS011;59091;47.446;19.148;2023-01-30T04:39:24;34.03;;;16.52;;
71303;SDS011;59091;47.446;19.148;2023-01-30T04:41:49;37.05;;;17.13;;
71303;SDS011;59091;47.446;19.148;2023-01-30T04:44:15;33.95;;;15.70;;
71303;SDS011;59091;47.446;19.148;2023-01-30T04:46:41;37.30;;;17.13;;
71303;SDS011;59091;47.446;19.148;2023-01-30T04:49:08;34.65;;;17.40;;
71303;SDS011;59091;47.446;19.148;2023-01-30T04:51:34;36.10;;;16.08;;
71303;SDS011;59091;47.446;19.148;2023-01-30T04:54:00;37.08;;;16.98;;
71303;SDS011;59091;47.446;19.148;2023-01-30T04:56:25;38.20;;;17.95;;
71303;SDS011;59091;47.446;19.148;2023-01-30T04:58:50;35.03;;;16.65;;
71303;SDS011;59091;47.446;19.148;2023-01-30T05:01:23;36.80;;;16.63;;
71303;SDS011;59091;47.446;19.148;2023-01-30T05:03:53;30.95;;;17.35;;
71303;SDS011;59091;47.446;19.148;2023-01-30T05:06:19;30.35;;;16.05;;
71303;SDS011;59091;47.446;19.148;2023-01-30T05:08:49;32.83;;;17.35;;
71303;SDS011;59091;47.446;19.148;2023-01-30T05:11:18;32.30;;;17.20;;
71303;SDS011;59091;47.446;19.148;2023-01-30T05:13:45;35.88;;;16.55;;
71303;SDS011;59091;47.446;19.148;2023-01-30T05:16:11;34.65;;;15.88;;
71303;SDS011;59091;47.446;19.148;2023-01-30T05:18:37;33.58;;;16.33;;
71303;SDS011;59091;47.446;19.148;2023-01-30T05:21:07;36.75;;;17.15;;
71303;SDS011;59091;47.446;19.148;2023-01-30T05:23:35;34.63;;;16.02;;
71303;SDS011;59091;47.446;19.148;2023-01-30T05:26:01;33.45;;;16.65;;
71303;SDS011;59091;47.446;19.148;2023-01-30T05:28:26;36.08;;;16.65;;
71303;SDS011;59091;47.446;19.148;2023-01-30T05:30:53;36.25;;;16.05;;
71303;SDS011;59091;47.446;19.148;2023-01-30T05:33:18;33.50;;;16.35;;
71303;SDS011;59091;47.446;19.148;2023-01-30T05:35:47;36.10;;;16.10;;
71303;SDS011;59091;47.446;19.148;2023-01-30T05:38:13;35.03;;;16.92;;
71303;SDS011;59091;47.446;19.148;2023-01-30T05:40:39;32.35;;;15.93;;
71303;SDS011;59091;47.446;19.148;2023-01-30T05:43:04;36.67;;;17.15;;
71303;SDS011;59091;47.446;19.148;2023-01-30T05:45:30;35.92;;;17.58;;
71303;SDS011;59091;47.446;19.148;2023-01-30T05:47:55;36.45;;;17.80;;
71303;SDS011;59091;47.446;19.148;2023-01-30T05:50:21;36.28;;;17.27;;
71303;SDS011;59091;47.446;19.148;2023-01-30T05:52:46;36.90;;;17.45;;
71303;SDS011;59091;47.446;19.148;2023-01-30T05:55:12;41.40;;;17.95;;
71303;SDS011;59091;47.446;19.148;2023-01-30T05:57:37;41.63;;;17.65;;
71303;SDS011;59091;47.446;19.148;2023-01-30T06:00:03;42.75;;;17.40;;
71303;SDS011;59091;47.446;19.148;2023-01-30T06:02:29;41.20;;;18.45;;
71303;SDS011;59091;47.446;19.148;2023-01-30T06:04:56;45.53;;;17.90;;
71303;SDS011;59091;47.446;19.148;2023-01-30T06:07:21;37.33;;;18.30;;
71303;SDS011;59091;47.446;19.148;2023-01-30T06:09:47;42.47;;;20.05;;
71303;SDS011;59091;47.446;19.148;2023-01-30T06:12:12;43.13;;;19.52;;
71303;SDS011;59091;47.446;19.148;2023-01-30T06:14:38;45.92;;;19.60;;
71303;SDS011;59091;47.446;19.148;2023-01-30T06:17:03;40.13;;;18.77;;
71303;SDS011;59091;47.446;19.148;2023-01-30T06:19:28;41.28;;;20.08;;
71303;SDS011;59091;47.446;19.148;2023-01-30T06:21:54;45.00;;;20.73;;
71303;SDS011;59091;47.446;19.148;2023-01-30T06:24:19;28.33;;;13.50;;
71303;SDS011;59091;47.446;19.148;2023-01-30T06:26:45;45.25;;;23.10;;
71303;SDS011;59091;47.446;19.148;2023-01-30T06:29:10;44.80;;;20.70;;
71303;SDS011;59091;47.446;19.148;2023-01-30T06:31:36;49.08;;;21.25;;
71303;SDS011;59091;47.446;19.148;2023-01-30T06:34:01;38.78;;;20.02;;
71303;SDS011;59091;47.446;19.148;2023-01-30T06:36:27;44.53;;;20.90;;
71303;SDS011;59091;47.446;19.148;2023-01-30T06:38:52;44.25;;;20.48;;
71303;SDS011;59091;47.446;19.148;2023-01-30T06:41:18;38.72;;;20.60;;
71303;SDS011;59091;47.446;19.148;2023-01-30T06:43:43;43.42;;;20.30;;
71303;SDS011;59091;47.446;19.148;2023-01-30T06:46:09;46.38;;;20.63;;
71303;SDS011;59091;47.446;19.148;2023-01-30T06:48:34;48.42;;;21.38;;
71303;SDS011;59091;47.446;19.148;2023-01-30T06:51:00;43.58;;;21.75;;
71303;SDS011;59091;47.446;19.148;2023-01-30T06:53:25;49.33;;;23.08;;
71303;SDS011;59091;47.446;19.148;2023-01-30T06:55:57;49.70;;;22.25;;
71303;SDS011;59091;47.446;19.148;2023-01-30T06:58:23;48.85;;;21.70;;
71303;SDS011;59091;47.446;19.148;2023-01-30T07:00:49;43.85;;;22.17;;
71303;SDS011;59091;47.446;19.148;2023-01-30T07:03:15;44.33;;;21.23;;
71303;SDS011;59091;47.446;19.148;2023-01-30T07:05:42;51.45;;;21.95;;
71303;SDS011;59091;47.446;19.148;2023-01-30T07:08:09;49.40;;;23.63;;
71303;SDS011;59091;47.446;19.148;2023-01-30T07:10:35;52.28;;;22.52;;
71303;SDS011;59091;47.446;19.148;2023-01-30T07:13:01;53.92;;;23.77;;
71303;SDS011;59091;47.446;19.148;2023-01-30T07:15:27;46.50;;;21.40;;
71303;SDS011;59091;47.446;19.148;2023-01-30T07:17:53;38.25;;;18.80;;
71303;SDS011;59091;47.446;19.148;2023-01-30T07:20:18;40.33;;;18.95;;
71303;SDS011;59091;47.446;19.148;2023-01-30T07:22:50;44.95;;;19.58;;
71303;SDS011;59091;47.446;19.148;2023-01-30T07:25:17;43.47;;;18.83;;
71303;SDS011;59091;47.446;19.148;2023-01-30T07:27:48;39.88;;;19.00;;
71303;SDS011;59091;47.446;19.148;2023-01-30T07:30:21;45.30;;;20.30;;
71303;SDS011;59091;47.446;19.148;2023-01-30T07:32:50;47.40;;;22.02;;
71303;SDS011;59091;47.446;19.148;2023-01-30T07:35:16;44.78;;;20.33;;
71303;SDS011;59091;47.446;19.148;2023-01-30T07:37:43;51.00;;;22.33;;
71303;SDS011;59091;47.446;19.148;2023-01-30T07:40:10;45.85;;;20.48;;
71303;SDS011;59091;47.446;19.148;2023-01-30T07:42:36;46.55;;;20.70;;
71303;SDS011;59091;47.446;19.148;2023-01-30T07:45:01;45.08;;;20.98;;
71303;SDS011;59091;47.446;19.148;2023-01-30T07:47:27;43.53;;;20.13;;
71303;SDS011;59091;47.446;19.148;2023-01-30T07:49:52;39.50;;;18.88;;
71303;SDS011;59091;47.446;19.148;2023-01-30T07:52:18;40.50;;;18.73;;
71303;SDS011;59091;47.446;19.148;2023-01-30T07:54:43;34.35;;;17.42;;
71303;SDS011;59091;47.446;19.148;2023-01-30T07:57:09;37.55;;;18.55;;
71303;SDS011;59091;47.446;19.148;2023-01-30T07:59:34;35.20;;;16.77;;
71303;SDS011;59091;47.446;19.148;2023-01-30T08:01:59;34.42;;;17.13;;
71303;SDS011;59091;47.446;19.148;2023-01-30T08:04:25;41.50;;;18.13;;
71303;SDS011;59091;47.446;19.148;2023-01-30T08:06:50;31.80;;;15.65;;
71303;SDS011;59091;47.446;19.148;2023-01-30T08:09:16;35.05;;;16.30;;
71303;SDS011;59091;47.446;19.148;2023-01-30T08:11:41;35.95;;;16.02;;
71303;SDS011;59091;47.446;19.148;2023-01-30T08:14:06;36.17;;;17.15;;
71303;SDS011;59091;47.446;19.148;2023-01-30T08:16:32;36.47;;;16.60;;
71303;SDS011;59091;47.446;19.148;2023-01-30T08:18:58;36.95;;;17.45;;
71303;SDS011;59091;47.446;19.148;2023-01-30T08:21:23;34.28;;;14.43;;
71303;SDS011;59091;47.446;19.148;2023-01-30T08:23:49;39.38;;;17.55;;
71303;SDS011;59091;47.446;19.148;2023-01-30T08:26:14;41.15;;;18.83;;
71303;SDS011;59091;47.446;19.148;2023-01-30T08:28:40;45.90;;;16.42;;
71303;SDS011;59091;47.446;19.148;2023-01-30T08:31:12;34.00;;;16.58;;
71303;SDS011;59091;47.446;19.148;2023-01-30T08:33:38;36.70;;;16.40;;
71303;SDS011;59091;47.446;19.148;2023-01-30T08:36:03;47.65;;;17.38;;
71303;SDS011;59091;47.446;19.148;2023-01-30T08:38:29;35.88;;;16.50;;
71303;SDS011;59091;47.446;19.148;2023-01-30T08:40:55;27.52;;;12.25;;
71303;SDS011;59091;47.446;19.148;2023-01-30T08:43:22;36.13;;;16.17;;
71303;SDS011;59091;47.446;19.148;2023-01-30T08:45:48;39.22;;;17.77;;
71303;SDS011;59091;47.446;19.148;2023-01-30T08:48:13;31.85;;;16.00;;
71303;SDS011;59091;47.446;19.148;2023-01-30T08:50:39;33.08;;;17.30;;
71303;SDS011;59091;47.446;19.148;2023-01-30T08:53:05;33.97;;;16.23;;
71303;SDS011;59091;47.446;19.148;2023-01-30T08:55:33;33.30;;;16.10;;
71303;SDS011;59091;47.446;19.148;2023-01-30T08:57:58;34.38;;;16.73;;
71303;SDS011;59091;47.446;19.148;2023-01-30T09:00:26;37.35;;;16.85;;
71303;SDS011;59091;47.446;19.148;2023-01-30T09:02:55;35.15;;;17.55;;
71303;SDS011;59091;47.446;19.148;2023-01-30T09:05:21;39.15;;;17.27;;
71303;SDS011;59091;47.446;19.148;2023-01-30T09:07:48;37.85;;;17.60;;
71303;SDS011;59091;47.446;19.148;2023-01-30T09:10:14;43.95;;;17.38;;
71303;SDS011;59091;47.446;19.148;2023-01-30T09:12:39;37.50;;;18.05;;
71303;SDS011;59091;47.446;19.148;2023-01-30T09:15:05;36.65;;;17.10;;
71303;SDS011;59091;47.446;19.148;2023-01-30T09:17:31;41.05;;;17.42;;
71303;SDS011;59091;47.446;19.148;2023-01-30T09:19:57;38.30;;;18.13;;
71303;SDS011;59091;47.446;19.148;2023-01-30T09:22:22;36.92;;;18.42;;
71303;SDS011;59091;47.446;19.148;2023-01-30T09:24:47;45.63;;;18.63;;
71303;SDS011;59091;47.446;19.148;2023-01-30T09:27:13;34.75;;;17.33;;
71303;SDS011;59091;47.446;19.148;2023-01-30T09:29:38;40.72;;;18.42;;
71303;SDS011;59091;47.446;19.148;2023-01-30T09:32:04;41.63;;;18.10;;
71303;SDS011;59091;47.446;19.148;2023-01-30T09:34:29;52.97;;;19.80;;
71303;SDS011;59091;47.446;19.148;2023-01-30T09:36:55;44.95;;;18.58;;
71303;SDS011;59091;47.446;19.148;2023-01-30T09:39:28;38.97;;;18.40;;
71303;SDS011;59091;47.446;19.148;2023-01-30T09:47:10;36.17;;;18.58;;
71303;SDS011;59091;47.446;19.148;2023-01-30T09:55:22;43.20;;;18.73;;
71303;SDS011;59091;47.446;19.148;2023-01-30T09:57:49;40.03;;;18.90;;
71303;SDS011;59091;47.446;19.148;2023-01-30T10:02:50;37.50;;;16.60;;
71303;SDS011;59091;47.446;19.148;2023-01-30T10:05:25;42.78;;;20.08;;
71303;SDS011;59091;47.446;19.148;2023-01-30T10:08:14;37.00;;;18.05;;
71303;SDS011;59091;47.446;19.148;2023-01-30T10:10:49;42.72;;;18.38;;
71303;SDS011;59091;47.446;19.148;2023-01-30T10:16:00;38.92;;;19.08;;
71303;SDS011;59091;47.446;19.148;2023-01-30T10:26:40;36.55;;;16.52;;
71303;SDS011;59091;47.446;19.148;2023-01-30T10:29:14;36.67;;;17.25;;
71303;SDS011;59091;47.446;19.148;2023-01-30T10:31:48;33.35;;;17.13;;
71303;SDS011;59091;47.446;19.148;2023-01-30T10:34:27;35.72;;;17.92;;
71303;SDS011;59091;47.446;19.148;2023-01-30T10:37:05;41.00;;;18.58;;
71303;SDS011;59091;47.446;19.148;2023-01-30T10:39:50;38.58;;;17.45;;
71303;SDS011;59091;47.446;19.148;2023-01-30T10:42:42;32.30;;;16.60;;
71303;SDS011;59091;47.446;19.148;2023-01-30T10:45:18;39.53;;;17.83;;
71303;SDS011;59091;47.446;19.148;2023-01-30T10:48:09;45.08;;;18.90;;
71303;SDS011;59091;47.446;19.148;2023-01-30T10:50:55;49.67;;;20.15;;
71303;SDS011;59091;47.446;19.148;2023-01-30T10:56:04;40.30;;;17.75;;
71303;SDS011;59091;47.446;19.148;2023-01-30T11:01:48;34.88;;;17.77;;
71303;SDS011;59091;47.446;19.148;2023-01-30T11:06:56;33.08;;;15.68;;
71303;SDS011;59091;47.446;19.148;2023-01-30T11:09:36;35.63;;;16.92;;
71303;SDS011;59091;47.446;19.148;2023-01-30T11:12:11;33.90;;;15.55;;
71303;SDS011;59091;47.446;19.148;2023-01-30T11:17:21;29.92;;;15.32;;
71303;SDS011;59091;47.446;19.148;2023-01-30T11:19:55;25.50;;;14.07;;
71303;SDS011;59091;47.446;19.148;2023-01-30T11:22:22;33.60;;;15.52;;
71303;SDS011;59091;47.446;19.148;2023-01-30T11:25:02;30.10;;;14.98;;
71303;SDS011;59091;47.446;19.148;2023-01-30T11:27:31;31.27;;;14.80;;
71303;SDS011;59091;47.446;19.148;2023-01-30T11:30:06;26.10;;;14.13;;
71303;SDS011;59091;47.446;19.148;2023-01-30T11:32:40;26.48;;;14.00;;
71303;SDS011;59091;47.446;19.148;2023-01-30T11:37:34;30.88;;;15.40;;
71303;SDS011;59091;47.446;19.148;2023-01-30T11:40:35;30.92;;;14.90;;
71303;SDS011;59091;47.446;19.148;2023-01-30T11:43:02;31.77;;;14.50;;
71303;SDS011;59091;47.446;19.148;2023-01-30T11:45:36;28.60;;;14.43;;
71303;SDS011;59091;47.446;19.148;2023-01-30T11:48:09;28.42;;;14.23;;
71303;SDS011;59091;47.446;19.148;2023-01-30T11:50:42;31.48;;;15.45;;
71303;SDS011;59091;47.446;19.148;2023-01-30T11:56:08;28.27;;;14.43;;
71303;SDS011;59091;47.446;19.148;2023-01-30T11:58:41;29.48;;;14.25;;
71303;SDS011;59091;47.446;19.148;2023-01-30T12:01:12;26.63;;;13.63;;
71303;SDS011;59091;47.446;19.148;2023-01-30T12:03:49;30.05;;;13.45;;
71303;SDS011;59091;47.446;19.148;2023-01-30T12:06:36;28.88;;;13.75;;
71303;SDS011;59091;47.446;19.148;2023-01-30T12:09:04;25.75;;;12.68;;
71303;SDS011;59091;47.446;19.148;2023-01-30T12:11:40;29.00;;;14.43;;
71303;SDS011;59091;47.446;19.148;2023-01-30T12:19:48;24.52;;;13.15;;
71303;SDS011;59091;47.446;19.148;2023-01-30T12:22:27;25.00;;;12.88;;
71303;SDS011;59091;47.446;19.148;2023-01-30T12:25:30;25.35;;;12.43;;
71303;SDS011;59091;47.446;19.148;2023-01-30T12:28:01;25.08;;;11.95;;
71303;SDS011;59091;47.446;19.148;2023-01-30T12:30:47;29.98;;;13.65;;
71303;SDS011;59091;47.446;19.148;2023-01-30T12:33:25;24.42;;;12.55;;
71303;SDS011;59091;47.446;19.148;2023-01-30T12:35:58;21.70;;;12.00;;
71303;SDS011;59091;47.446;19.148;2023-01-30T12:41:29;27.10;;;13.20;;
71303;SDS011;59091;47.446;19.148;2023-01-30T12:49:55;26.85;;;14.27;;
71303;SDS011;59091;47.446;19.148;2023-01-30T12:52:48;27.90;;;13.27;;
71303;SDS011;59091;47.446;19.148;2023-01-30T12:58:10;27.83;;;12.75;;
71303;SDS011;59091;47.446;19.148;2023-01-30T13:03:57;25.33;;;12.70;;
71303;SDS011;59091;47.446;19.148;2023-01-30T13:09:37;24.92;;;12.40;;
71303;SDS011;59091;47.446;19.148;2023-01-30T13:12:15;30.98;;;13.48;;
71303;SDS011;59091;47.446;19.148;2023-01-30T13:26:15;24.33;;;13.25;;
71303;SDS011;59091;47.446;19.148;2023-01-30T13:28:46;30.45;;;14.10;;
71303;SDS011;59091;47.446;19.148;2023-01-30T13:31:15;25.92;;;13.23;;
71303;SDS011;59091;47.446;19.148;2023-01-30T13:33:44;27.63;;;13.38;;
71303;SDS011;59091;47.446;19.148;2023-01-30T13:36:13;24.52;;;12.88;;
71303;SDS011;59091;47.446;19.148;2023-01-30T13:38:58;32.65;;;13.40;;
71303;SDS011;59091;47.446;19.148;2023-01-30T13:41:28;30.50;;;13.85;;
71303;SDS011;59091;47.446;19.148;2023-01-30T13:44:00;23.77;;;12.48;;
71303;SDS011;59091;47.446;19.148;2023-01-30T13:46:31;26.95;;;12.52;;
71303;SDS011;59091;47.446;19.148;2023-01-30T13:56:52;24.83;;;11.60;;
71303;SDS011;59091;47.446;19.148;2023-01-30T14:09:33;30.17;;;14.07;;
71303;SDS011;59091;47.446;19.148;2023-01-30T14:12:01;25.92;;;13.20;;
71303;SDS011;59091;47.446;19.148;2023-01-30T14:14:29;23.23;;;12.98;;
71303;SDS011;59091;47.446;19.148;2023-01-30T14:17:03;23.77;;;11.93;;
71303;SDS011;59091;47.446;19.148;2023-01-30T14:19:38;23.73;;;12.20;;
71303;SDS011;59091;47.446;19.148;2023-01-30T14:22:17;24.20;;;11.73;;
71303;SDS011;59091;47.446;19.148;2023-01-30T14:25:15;26.85;;;12.52;;
71303;SDS011;59091;47.446;19.148;2023-01-30T14:27:49;21.70;;;11.90;;
71303;SDS011;59091;47.446;19.148;2023-01-30T14:33:01;21.00;;;10.27;;
71303;SDS011;59091;47.446;19.148;2023-01-30T14:35:48;20.38;;;10.73;;
71303;SDS011;59091;47.446;19.148;2023-01-30T14:38:38;20.95;;;11.25;;
71303;SDS011;59091;47.446;19.148;2023-01-30T14:54:02;23.55;;;12.10;;
71303;SDS011;59091;47.446;19.148;2023-01-30T15:30:04;24.08;;;12.07;;
71303;SDS011;59091;47.446;19.148;2023-01-30T15:32:48;20.77;;;11.10;;
71303;SDS011;59091;47.446;19.148;2023-01-30T15:42:42;27.48;;;12.50;;
71303;SDS011;59091;47.446;19.148;2023-01-30T15:51:07;27.10;;;12.60;;
71303;SDS011;59091;47.446;19.148;2023-01-30T15:53:38;23.65;;;12.23;;
71303;SDS011;59091;47.446;19.148;2023-01-30T15:56:07;27.33;;;12.95;;
71303;SDS011;59091;47.446;19.148;2023-01-30T15:58:39;32.70;;;13.02;;
71303;SDS011;59091;47.446;19.148;2023-01-30T16:01:06;27.60;;;13.07;;
71303;SDS011;59091;47.446;19.148;2023-01-30T16:03:33;27.13;;;13.32;;
71303;SDS011;59091;47.446;19.148;2023-01-30T16:06:04;29.00;;;13.88;;
71303;SDS011;59091;47.446;19.148;2023-01-30T16:08:35;28.40;;;14.05;;
71303;SDS011;59091;47.446;19.148;2023-01-30T16:11:01;27.38;;;13.88;;
71303;SDS011;59091;47.446;19.148;2023-01-30T16:13:27;28.40;;;13.57;;
71303;SDS011;59091;47.446;19.148;2023-01-30T16:21:17;27.52;;;13.85;;
71303;SDS011;59091;47.446;19.148;2023-01-30T16:23:52;32.03;;;15.05;;
71303;SDS011;59091;47.446;19.148;2023-01-30T16:26:39;28.77;;;13.55;;
71303;SDS011;59091;47.446;19.148;2023-01-30T16:29:10;28.17;;;14.38;;
71303;SDS011;59091;47.446;19.148;2023-01-30T16:31:40;28.10;;;14.35;;
71303;SDS011;59091;47.446;19.148;2023-01-30T16:36:53;27.25;;;13.77;;
71303;SDS011;59091;47.446;19.148;2023-01-30T16:39:27;28.27;;;13.85;;
71303;SDS011;59091;47.446;19.148;2023-01-30T16:41:55;28.00;;;14.05;;
71303;SDS011;59091;47.446;19.148;2023-01-30T16:44:26;34.47;;;15.80;;
71303;SDS011;59091;47.446;19.148;2023-01-30T16:49:50;28.40;;;15.07;;
71303;SDS011;59091;47.446;19.148;2023-01-30T16:54:46;27.90;;;14.20;;
71303;SDS011;59091;47.446;19.148;2023-01-30T16:57:33;28.20;;;14.77;;
71303;SDS011;59091;47.446;19.148;2023-01-30T17:00:22;31.55;;;15.88;;
71303;SDS011;59091;47.446;19.148;2023-01-30T17:05:24;32.67;;;16.83;;
71303;SDS011;59091;47.446;19.148;2023-01-30T17:07:51;29.65;;;13.40;;
71303;SDS011;59091;47.446;19.148;2023-01-30T17:13:04;34.20;;;16.05;;
71303;SDS011;59091;47.446;19.148;2023-01-30T17:18:49;33.30;;;17.48;;
71303;SDS011;59091;47.446;19.148;2023-01-30T17:21:16;37.20;;;19.15;;
71303;SDS011;59091;47.446;19.148;2023-01-30T17:23:50;40.35;;;18.95;;
71303;SDS011;59091;47.446;19.148;2023-01-30T17:26:19;37.97;;;18.35;;
71303;SDS011;59091;47.446;19.148;2023-01-30T17:28:44;36.80;;;17.35;;
71303;SDS011;59091;47.446;19.148;2023-01-30T17:31:10;37.47;;;18.55;;
71303;SDS011;59091;47.446;19.148;2023-01-30T17:33:37;40.38;;;19.83;;
71303;SDS011;59091;47.446;19.148;2023-01-30T17:36:02;39.67;;;17.80;;
71303;SDS011;59091;47.446;19.148;2023-01-30T17:38:30;31.67;;;17.05;;
71303;SDS011;59091;47.446;19.148;2023-01-30T17:40:56;40.22;;;18.67;;
71303;SDS011;59091;47.446;19.148;2023-01-30T17:43:22;31.88;;;16.40;;
71303;SDS011;59091;47.446;19.148;2023-01-30T17:45:47;36.28;;;15.27;;
71303;SDS011;59091;47.446;19.148;2023-01-30T17:48:13;32.60;;;15.35;;
71303;SDS011;59091;47.446;19.148;2023-01-30T17:50:39;32.22;;;15.10;;
71303;SDS011;59091;47.446;19.148;2023-01-30T17:53:04;31.27;;;15.00;;
71303;SDS011;59091;47.446;19.148;2023-01-30T17:55:31;36.15;;;15.50;;